Pires Coelho — CUPM6 — position and weather

sailwx.info

Track history (hours):
 
Tides and Currents Weather Stations Pressure Air Temp Water Temp Dewpoint Dewpoint Depression Visibility Wind Speed Wind Dir Waves Ship Positions

Pires Coelho

Last reported at 2015-Sep-01 07:33 UTC. Time now 2015-Sep-01 07:57 UTC.
Position N 36°49' W 008°22'.

Length 27 m.

Type: Ship. MMSI: 263236000.

Date/timePositionNaut miles runAvg speedWind from/ knotsBaromVisibWave heightAir tempDewpointWater temp
2015-Sep-01 07:33N 36°49' W 008°22'3 3.0
2015-Sep-01 06:30N 36°49' W 008°18'4 4.5
2015-Sep-01 05:32N 36°48' W 008°13'4 3.0
2015-Sep-01 04:16N 36°47' W 008°08'3 3.2
2015-Sep-01 03:27N 36°48' W 008°05'3 3.0
2015-Sep-01 02:33N 36°48' W 008°02'3 3.0
2015-Sep-01 01:33N 36°49' W 007°58'4 1.8
2015-Aug-31 23:10N 36°52' W 008°02'3 3.0
2015-Aug-31 22:12N 36°52' W 008°06'2 2.9
2015-Aug-31 21:29N 36°51' W 008°08'3 2.8
2015-Aug-31 20:33N 36°50' W 008°11'1 1.2
2015-Aug-31 19:33N 36°49' W 008°10'3 2.8
2015-Aug-31 18:33N 36°50' W 008°07'3 2.9
2015-Aug-31 17:34N 36°51' W 008°03'3 3.0
2015-Aug-31 16:33N 36°51' W 007°60'2 2.3
2015-Aug-31 15:33N 36°52' W 007°57'2 2.2
2015-Aug-31 14:33N 36°51' W 007°60'4 2.0
2015-Aug-31 12:28N 36°53' W 008°04'6 2.6
2015-Aug-31 10:17N 36°49' W 008°09'1 0.7
2015-Aug-31 09:31N 36°49' W 008°09'3 2.6
2015-Aug-31 08:30N 36°50' W 008°06'3 2.9
2015-Aug-31 07:33N 36°51' W 008°03'4 3.0
2015-Aug-31 06:18N 36°52' W 007°58'6 0.4
2015-Aug-30 14:07N 36°54' W 008°05'7 1.9
2015-Aug-30 10:33N 36°49' W 008°11'2 2.3
2015-Aug-30 09:33N 36°49' W 008°08'4 0.9
2015-Aug-30 05:07N 36°52' W 008°06'2 2.9
2015-Aug-30 04:29N 36°51' W 008°07'3 2.9
2015-Aug-30 03:33N 36°50' W 008°11'2 1.9
2015-Aug-30 02:33N 36°50' W 008°08'3 2.8
2015-Aug-30 01:33N 36°52' W 008°06'3 3.0
2015-Aug-30 00:33N 36°52' W 008°02'2 1.5
2015-Aug-29 23:32N 36°52' W 007°60'8 2.7
2015-Aug-29 20:33N 36°50' W 008°10'5 3.6
2015-Aug-29 19:13N 36°47' W 008°14'2 2.2
2015-Aug-29 18:17N 36°47' W 008°12'2 2.9
2015-Aug-29 17:33N 36°47' W 008°09'9 2.9
2015-Aug-29 14:32N 36°49' W 007°58'6 1.5
2015-Aug-29 10:22N 36°48' W 008°06'5 0.6
2015-Aug-29 01:33N 36°53' W 008°04'4 2.7
2015-Aug-29 00:09N 36°51' W 008°08'1 0.9
2015-Aug-28 23:32N 36°50' W 008°08'2 2.4
2015-Aug-28 22:33N 36°52' W 008°06'3 2.7
2015-Aug-28 21:33N 36°53' W 008°03'3 2.9
2015-Aug-28 20:34N 36°52' W 007°60'3 3.3
2015-Aug-28 19:32N 36°50' W 007°56'3 2.9
2015-Aug-28 18:33N 36°49' W 007°59'4 3.6
2015-Aug-28 17:33N 36°48' W 008°04'3 2.6
2015-Aug-28 16:33N 36°49' W 008°01'3 2.9
2015-Aug-28 15:33N 36°50' W 007°57'0 0.1
2015-Aug-28 14:18N 36°50' W 007°57'2 2.8
2015-Aug-28 13:30N 36°49' W 007°60'5 2.8
2015-Aug-28 11:34N 36°48' W 008°06'3 3.0
2015-Aug-28 10:34N 36°47' W 008°10'2 2.0
2015-Aug-28 09:34N 36°49' W 008°09'3 2.9
2015-Aug-28 08:33N 36°50' W 008°06'3 2.8
2015-Aug-28 07:34N 36°51' W 008°02'3 3.0
2015-Aug-28 06:33N 36°51' W 007°59'7 3.6
2015-Aug-28 04:31N 36°50' W 008°08'3 2.7
2015-Aug-28 03:33N 36°52' W 008°06'3 2.9
2015-Aug-28 02:34N 36°52' W 008°02'7 1.0
2015-Aug-27 20:06N 36°48' W 008°08'3 4.3
2015-Aug-27 19:31N 36°47' W 008°11'3 2.7
2015-Aug-27 18:33N 36°47' W 008°08'3 2.8
2015-Aug-27 17:33N 36°48' W 008°05'3 2.8
2015-Aug-27 16:33N 36°48' W 008°01'3 2.8
2015-Aug-27 15:31N 36°49' W 007°58'2 1.9
2015-Aug-27 14:33N 36°51' W 007°56'3 2.5
2015-Aug-27 13:33N 36°49' W 007°58'6 2.8
2015-Aug-27 11:27N 36°48' W 008°06'2 2.7
2015-Aug-27 10:34N 36°47' W 008°09'2 2.2
2015-Aug-27 09:28N 36°49' W 008°08'3 3.0
2015-Aug-27 08:28N 36°51' W 008°04'3 3.0
2015-Aug-27 07:33N 36°51' W 008°01'3 3.0
2015-Aug-27 06:33N 36°52' W 007°57'3 3.0
2015-Aug-27 05:31N 36°52' W 007°53'6 2.9
2015-Aug-27 03:33N 36°49' W 007°59'3 3.1
2015-Aug-27 02:33N 36°48' W 008°03'2 1.8
2015-Aug-27 01:33N 36°49' W 008°01'3 3.0
2015-Aug-27 00:33N 36°50' W 007°58'1 0.5
2015-Aug-26 23:06N 36°49' W 007°57'2 2.7
2015-Aug-26 22:32N 36°49' W 007°59'7 2.7
2015-Aug-26 20:06N 36°47' W 008°07'2 3.5
2015-Aug-26 19:33N 36°47' W 008°10'1 0.5
2015-Aug-26 18:33N 36°47' W 008°10'3 2.9
2015-Aug-26 17:33N 36°47' W 008°07'3 2.9
2015-Aug-26 16:25N 36°49' W 008°03'1 0.3
2015-Aug-26 12:26N 36°48' W 008°01'3 2.9
2015-Aug-26 11:17N 36°48' W 008°05'2 2.8
2015-Aug-26 10:26N 36°47' W 008°08'2 2.1
2015-Aug-26 09:33N 36°49' W 008°09'3 2.9
2015-Aug-26 08:27N 36°50' W 008°05'3 2.9
2015-Aug-26 07:34N 36°51' W 008°02'3 3.0
2015-Aug-26 06:24N 36°52' W 007°58'0 0.1
2015-Aug-25 23:33N 36°52' W 007°58'3 2.8
2015-Aug-25 22:33N 36°52' W 008°02'3 2.9
2015-Aug-25 21:33N 36°52' W 008°05'2 1.8
2015-Aug-25 20:33N 36°53' W 008°03'3 2.5
2015-Aug-25 19:30N 36°51' W 008°05'3 2.8
2015-Aug-25 18:30N 36°49' W 008°08'1 0.6
2015-Aug-25 17:32N 36°50' W 008°07'3 3.0
2015-Aug-25 16:34N 36°51' W 008°04'3 3.0
2015-Aug-25 15:33N 36°51' W 007°60'3 3.0
2015-Aug-25 14:34N 36°52' W 007°56'1 1.0
2015-Aug-25 13:24N 36°52' W 007°58'3 2.9
2015-Aug-25 12:15N 36°51' W 008°02'6 2.9
2015-Aug-25 10:20N 36°49' W 008°08'2 2.0
2015-Aug-25 09:22N 36°50' W 008°06'2 2.8
2015-Aug-25 08:33N 36°51' W 008°04'3 2.9
2015-Aug-25 07:33N 36°51' W 007°60'3 2.9
2015-Aug-25 06:33N 36°52' W 007°57'12 0.3
2015-Aug-23 20:27N 36°48' W 008°10'5 5.0
2015-Aug-23 19:29N 36°49' W 008°16'3 2.9
2015-Aug-23 18:32N 36°49' W 008°19'3 3.4
2015-Aug-23 17:33N 36°50' W 008°23'3 3.0
2015-Aug-23 16:33N 36°50' W 008°27'3 3.1
2015-Aug-23 15:33N 36°49' W 008°31'3 2.9
2015-Aug-23 14:32N 36°52' W 008°30'2 2.3
2015-Aug-23 13:33N 36°50' W 008°32'2 2.2
2015-Aug-23 12:34N 36°49' W 008°29'3 2.9
2015-Aug-23 11:33N 36°49' W 008°26'3 3.0
2015-Aug-23 10:33N 36°49' W 008°22'3 1.3
2015-Aug-23 08:08N 36°47' W 008°25'2 2.9
2015-Aug-23 07:30N 36°47' W 008°27'3 2.9
2015-Aug-23 06:33N 36°47' W 008°30'5 5.1
2015-Aug-23 05:33N 36°47' W 008°37'5 2.4
2015-Aug-23 03:32N 36°46' W 008°43'3 2.9
2015-Aug-23 02:32N 36°46' W 008°46'  
Track history (hours):
 
Tides and Currents Weather Stations Pressure Air Temp Water Temp Dewpoint Dewpoint Depression Visibility Wind Speed Wind Dir Waves Ship Positions

Pires Coelho

Last reported at 2015-Sep-01 07:33 UTC. Time now 2015-Sep-01 07:57 UTC.
Position N 36°49' W 008°22'.

Length 27 m.

Type: Ship. MMSI: 263236000.

Date/timePositionNaut miles runAvg speedWind from/ knotsBaromVisibWave heightAir tempDewpointWater temp
2015-Sep-01 07:33N 36°49' W 008°22'3 3.0
2015-Sep-01 06:30N 36°49' W 008°18'4 4.5
2015-Sep-01 05:32N 36°48' W 008°13'4 3.0
2015-Sep-01 04:16N 36°47' W 008°08'3 3.2
2015-Sep-01 03:27N 36°48' W 008°05'3 3.0
2015-Sep-01 02:33N 36°48' W 008°02'3 3.0
2015-Sep-01 01:33N 36°49' W 007°58'4 1.8
2015-Aug-31 23:10N 36°52' W 008°02'3 3.0
2015-Aug-31 22:12N 36°52' W 008°06'2 2.9
2015-Aug-31 21:29N 36°51' W 008°08'3 2.8
2015-Aug-31 20:33N 36°50' W 008°11'1 1.2
2015-Aug-31 19:33N 36°49' W 008°10'3 2.8
2015-Aug-31 18:33N 36°50' W 008°07'3 2.9
2015-Aug-31 17:34N 36°51' W 008°03'3 3.0
2015-Aug-31 16:33N 36°51' W 007°60'2 2.3
2015-Aug-31 15:33N 36°52' W 007°57'2 2.2
2015-Aug-31 14:33N 36°51' W 007°60'4 2.0
2015-Aug-31 12:28N 36°53' W 008°04'6 2.6
2015-Aug-31 10:17N 36°49' W 008°09'1 0.7
2015-Aug-31 09:31N 36°49' W 008°09'3 2.6
2015-Aug-31 08:30N 36°50' W 008°06'3 2.9
2015-Aug-31 07:33N 36°51' W 008°03'4 3.0
2015-Aug-31 06:18N 36°52' W 007°58'6 0.4
2015-Aug-30 14:07N 36°54' W 008°05'7 1.9
2015-Aug-30 10:33N 36°49' W 008°11'2 2.3
2015-Aug-30 09:33N 36°49' W 008°08'4 0.9
2015-Aug-30 05:07N 36°52' W 008°06'2 2.9
2015-Aug-30 04:29N 36°51' W 008°07'3 2.9
2015-Aug-30 03:33N 36°50' W 008°11'2 1.9
2015-Aug-30 02:33N 36°50' W 008°08'3 2.8
2015-Aug-30 01:33N 36°52' W 008°06'3 3.0
2015-Aug-30 00:33N 36°52' W 008°02'2 1.5
2015-Aug-29 23:32N 36°52' W 007°60'8 2.7
2015-Aug-29 20:33N 36°50' W 008°10'5 3.6
2015-Aug-29 19:13N 36°47' W 008°14'2 2.2
2015-Aug-29 18:17N 36°47' W 008°12'2 2.9
2015-Aug-29 17:33N 36°47' W 008°09'9 2.9
2015-Aug-29 14:32N 36°49' W 007°58'6 1.5
2015-Aug-29 10:22N 36°48' W 008°06'5 0.6
2015-Aug-29 01:33N 36°53' W 008°04'4 2.7
2015-Aug-29 00:09N 36°51' W 008°08'1 0.9
2015-Aug-28 23:32N 36°50' W 008°08'2 2.4
2015-Aug-28 22:33N 36°52' W 008°06'3 2.7
2015-Aug-28 21:33N 36°53' W 008°03'3 2.9
2015-Aug-28 20:34N 36°52' W 007°60'3 3.3
2015-Aug-28 19:32N 36°50' W 007°56'3 2.9
2015-Aug-28 18:33N 36°49' W 007°59'4 3.6
2015-Aug-28 17:33N 36°48' W 008°04'3 2.6
2015-Aug-28 16:33N 36°49' W 008°01'3 2.9
2015-Aug-28 15:33N 36°50' W 007°57'0 0.1
2015-Aug-28 14:18N 36°50' W 007°57'2 2.8
2015-Aug-28 13:30N 36°49' W 007°60'5 2.8
2015-Aug-28 11:34N 36°48' W 008°06'3 3.0
2015-Aug-28 10:34N 36°47' W 008°10'2 2.0
2015-Aug-28 09:34N 36°49' W 008°09'3 2.9
2015-Aug-28 08:33N 36°50' W 008°06'3 2.8
2015-Aug-28 07:34N 36°51' W 008°02'3 3.0
2015-Aug-28 06:33N 36°51' W 007°59'7 3.6
2015-Aug-28 04:31N 36°50' W 008°08'3 2.7
2015-Aug-28 03:33N 36°52' W 008°06'3 2.9
2015-Aug-28 02:34N 36°52' W 008°02'7 1.0
2015-Aug-27 20:06N 36°48' W 008°08'3 4.3
2015-Aug-27 19:31N 36°47' W 008°11'3 2.7
2015-Aug-27 18:33N 36°47' W 008°08'3 2.8
2015-Aug-27 17:33N 36°48' W 008°05'3 2.8
2015-Aug-27 16:33N 36°48' W 008°01'3 2.8
2015-Aug-27 15:31N 36°49' W 007°58'2 1.9
2015-Aug-27 14:33N 36°51' W 007°56'3 2.5
2015-Aug-27 13:33N 36°49' W 007°58'6 2.8
2015-Aug-27 11:27N 36°48' W 008°06'2 2.7
2015-Aug-27 10:34N 36°47' W 008°09'2 2.2
2015-Aug-27 09:28N 36°49' W 008°08'3 3.0
2015-Aug-27 08:28N 36°51' W 008°04'3 3.0
2015-Aug-27 07:33N 36°51' W 008°01'3 3.0
2015-Aug-27 06:33N 36°52' W 007°57'3 3.0
2015-Aug-27 05:31N 36°52' W 007°53'6 2.9
2015-Aug-27 03:33N 36°49' W 007°59'3 3.1
2015-Aug-27 02:33N 36°48' W 008°03'2 1.8
2015-Aug-27 01:33N 36°49' W 008°01'3 3.0
2015-Aug-27 00:33N 36°50' W 007°58'1 0.5
2015-Aug-26 23:06N 36°49' W 007°57'2 2.7
2015-Aug-26 22:32N 36°49' W 007°59'7 2.7
2015-Aug-26 20:06N 36°47' W 008°07'2 3.5
2015-Aug-26 19:33N 36°47' W 008°10'1 0.5
2015-Aug-26 18:33N 36°47' W 008°10'3 2.9
2015-Aug-26 17:33N 36°47' W 008°07'3 2.9
2015-Aug-26 16:25N 36°49' W 008°03'1 0.3
2015-Aug-26 12:26N 36°48' W 008°01'3 2.9
2015-Aug-26 11:17N 36°48' W 008°05'2 2.8
2015-Aug-26 10:26N 36°47' W 008°08'2 2.1
2015-Aug-26 09:33N 36°49' W 008°09'3 2.9
2015-Aug-26 08:27N 36°50' W 008°05'3 2.9
2015-Aug-26 07:34N 36°51' W 008°02'3 3.0
2015-Aug-26 06:24N 36°52' W 007°58'0 0.1
2015-Aug-25 23:33N 36°52' W 007°58'3 2.8
2015-Aug-25 22:33N 36°52' W 008°02'3 2.9
2015-Aug-25 21:33N 36°52' W 008°05'2 1.8
2015-Aug-25 20:33N 36°53' W 008°03'3 2.5
2015-Aug-25 19:30N 36°51' W 008°05'3 2.8
2015-Aug-25 18:30N 36°49' W 008°08'1 0.6
2015-Aug-25 17:32N 36°50' W 008°07'3 3.0
2015-Aug-25 16:34N 36°51' W 008°04'3 3.0
2015-Aug-25 15:33N 36°51' W 007°60'3 3.0
2015-Aug-25 14:34N 36°52' W 007°56'1 1.0
2015-Aug-25 13:24N 36°52' W 007°58'3 2.9
2015-Aug-25 12:15N 36°51' W 008°02'6 2.9
2015-Aug-25 10:20N 36°49' W 008°08'2 2.0
2015-Aug-25 09:22N 36°50' W 008°06'2 2.8
2015-Aug-25 08:33N 36°51' W 008°04'3 2.9
2015-Aug-25 07:33N 36°51' W 007°60'3 2.9
2015-Aug-25 06:33N 36°52' W 007°57'12 0.3
2015-Aug-23 20:27N 36°48' W 008°10'5 5.0
2015-Aug-23 19:29N 36°49' W 008°16'3 2.9
2015-Aug-23 18:32N 36°49' W 008°19'3 3.4
2015-Aug-23 17:33N 36°50' W 008°23'3 3.0
2015-Aug-23 16:33N 36°50' W 008°27'3 3.1
2015-Aug-23 15:33N 36°49' W 008°31'3 2.9
2015-Aug-23 14:32N 36°52' W 008°30'2 2.3
2015-Aug-23 13:33N 36°50' W 008°32'2 2.2
2015-Aug-23 12:34N 36°49' W 008°29'3 2.9
2015-Aug-23 11:33N 36°49' W 008°26'3 3.0
2015-Aug-23 10:33N 36°49' W 008°22'3 1.3
2015-Aug-23 08:08N 36°47' W 008°25'2 2.9
2015-Aug-23 07:30N 36°47' W 008°27'3 2.9
2015-Aug-23 06:33N 36°47' W 008°30'5 5.1
2015-Aug-23 05:33N 36°47' W 008°37'5 2.4
2015-Aug-23 03:32N 36°46' W 008°43'3 2.9
2015-Aug-23 02:32N 36°46' W 008°46'  

Dump ship's entire track history